sensor_id;sensor_type;location;lat;lon;timestamp;pressure;altitude;pressure_sealevel;temperature;humidity
54918;BME280;40818;50.562;7.454;2024-03-23T00:55:47;96897.22;;;7.96;100.00
54918;BME280;40818;50.562;7.454;2024-03-23T01:05:48;96894.94;;;7.92;100.00
54918;BME280;40818;50.562;7.454;2024-03-23T01:15:52;96898.28;;;7.28;100.00
54918;BME280;40818;50.562;7.454;2024-03-23T01:25:54;96917.84;;;6.92;100.00
54918;BME280;40818;50.562;7.454;2024-03-23T01:35:57;96928.53;;;6.86;100.00
54918;BME280;40818;50.562;7.454;2024-03-23T01:45:58;96919.13;;;6.57;100.00
54918;BME280;40818;50.562;7.454;2024-03-23T01:56:02;96895.34;;;6.52;100.00
54918;BME280;40818;50.562;7.454;2024-03-23T02:06:03;96894.63;;;6.50;100.00
54918;BME280;40818;50.562;7.454;2024-03-23T02:16:07;96859.41;;;6.36;100.00
54918;BME280;40818;50.562;7.454;2024-03-23T02:26:11;96874.13;;;6.34;100.00
54918;BME280;40818;50.562;7.454;2024-03-23T02:36:12;96868.06;;;6.21;100.00
54918;BME280;40818;50.562;7.454;2024-03-23T02:46:15;96865.69;;;6.18;100.00
54918;BME280;40818;50.562;7.454;2024-03-23T02:56:16;96868.00;;;6.22;100.00
54918;BME280;40818;50.562;7.454;2024-03-23T03:06:25;96868.75;;;6.10;100.00
54918;BME280;40818;50.562;7.454;2024-03-23T03:16:26;96844.34;;;6.01;100.00
54918;BME280;40818;50.562;7.454;2024-03-23T03:26:30;96862.00;;;5.64;100.00
54918;BME280;40818;50.562;7.454;2024-03-23T03:36:30;96872.44;;;5.32;100.00
54918;BME280;40818;50.562;7.454;2024-03-23T03:46:34;96885.44;;;5.15;100.00
54918;BME280;40818;50.562;7.454;2024-03-23T03:56:34;96877.69;;;4.84;100.00
54918;BME280;40818;50.562;7.454;2024-03-23T04:06:38;96881.00;;;4.40;100.00
54918;BME280;40818;50.562;7.454;2024-03-23T04:16:39;96891.00;;;4.28;100.00
54918;BME280;40818;50.562;7.454;2024-03-23T04:26:45;96933.00;;;4.12;100.00
54918;BME280;40818;50.562;7.454;2024-03-23T04:36:46;96946.88;;;3.91;100.00
54918;BME280;40818;50.562;7.454;2024-03-23T04:46:50;96944.41;;;3.72;100.00
54918;BME280;40818;50.562;7.454;2024-03-23T04:56:50;96952.44;;;3.66;100.00
54918;BME280;40818;50.562;7.454;2024-03-23T05:06:54;96971.44;;;3.45;100.00
54918;BME280;40818;50.562;7.454;2024-03-23T05:16:55;96962.97;;;3.60;100.00
54918;BME280;40818;50.562;7.454;2024-03-23T05:26:59;96957.56;;;3.49;100.00
54918;BME280;40818;50.562;7.454;2024-03-23T05:36:59;96966.47;;;3.41;100.00
54918;BME280;40818;50.562;7.454;2024-03-23T05:47:03;96981.31;;;3.35;100.00
54918;BME280;40818;50.562;7.454;2024-03-23T05:57:04;97007.38;;;3.45;100.00
54918;BME280;40818;50.562;7.454;2024-03-23T06:07:07;97023.00;;;3.57;100.00
54918;BME280;40818;50.562;7.454;2024-03-23T06:17:08;97020.59;;;3.72;100.00
54918;BME280;40818;50.562;7.454;2024-03-23T06:27:12;97012.50;;;3.80;100.00
54918;BME280;40818;50.562;7.454;2024-03-23T06:37:13;97023.97;;;4.07;100.00
54918;BME280;40818;50.562;7.454;2024-03-23T06:47:16;97048.50;;;4.31;100.00
54918;BME280;40818;50.562;7.454;2024-03-23T06:57:17;97057.38;;;4.58;100.00
54918;BME280;40818;50.562;7.454;2024-03-23T07:07:21;97064.34;;;4.72;100.00
54918;BME280;40818;50.562;7.454;2024-03-23T07:17:22;97052.09;;;4.93;100.00
54918;BME280;40818;50.562;7.454;2024-03-23T07:27:25;97056.66;;;5.36;100.00
54918;BME280;40818;50.562;7.454;2024-03-23T07:37:26;97063.09;;;5.90;100.00
54918;BME280;40818;50.562;7.454;2024-03-23T07:47:29;97059.22;;;6.72;100.00
54918;BME280;40818;50.562;7.454;2024-03-23T07:57:30;97079.38;;;7.63;100.00
54918;BME280;40818;50.562;7.454;2024-03-23T08:07:34;97099.38;;;8.14;100.00
54918;BME280;40818;50.562;7.454;2024-03-23T08:17:35;97101.41;;;8.49;100.00
54918;BME280;40818;50.562;7.454;2024-03-23T08:27:38;97109.88;;;8.90;100.00
54918;BME280;40818;50.562;7.454;2024-03-23T08:37:39;97109.75;;;9.04;100.00
54918;BME280;40818;50.562;7.454;2024-03-23T08:47:42;97109.81;;;9.29;100.00
54918;BME280;40818;50.562;7.454;2024-03-23T08:57:43;97138.66;;;8.19;94.07
54918;BME280;40818;50.562;7.454;2024-03-23T09:07:47;97136.56;;;7.30;98.01
54918;BME280;40818;50.562;7.454;2024-03-23T09:17:47;97126.22;;;7.30;100.00
54918;BME280;40818;50.562;7.454;2024-03-23T09:27:51;97111.97;;;8.06;99.04
54918;BME280;40818;50.562;7.454;2024-03-23T09:37:52;97112.06;;;8.96;93.82
54918;BME280;40818;50.562;7.454;2024-03-23T09:47:56;97098.41;;;10.04;91.92
54918;BME280;40818;50.562;7.454;2024-03-23T09:57:57;97089.75;;;10.16;86.07
54918;BME280;40818;50.562;7.454;2024-03-23T10:08:17;97089.84;;;9.18;81.88
54918;BME280;40818;50.562;7.454;2024-03-23T10:18:19;97086.38;;;8.93;88.44
54918;BME280;40818;50.562;7.454;2024-03-23T10:28:23;97079.13;;;9.60;91.03
54918;BME280;40818;50.562;7.454;2024-03-23T10:38:25;97076.00;;;10.03;83.64
54918;BME280;40818;50.562;7.454;2024-03-23T10:48:28;97061.50;;;9.65;84.76
54918;BME280;40818;50.562;7.454;2024-03-23T10:58:31;97108.66;;;9.33;81.23
54918;BME280;40818;50.562;7.454;2024-03-23T11:08:36;97145.94;;;8.40;88.22
54918;BME280;40818;50.562;7.454;2024-03-23T11:18:37;97128.97;;;7.96;94.27
54918;BME280;40818;50.562;7.454;2024-03-23T11:28:41;97140.81;;;8.53;91.25
54918;BME280;40818;50.562;7.454;2024-03-23T11:38:41;97130.66;;;9.27;90.20
54918;BME280;40818;50.562;7.454;2024-03-23T11:48:49;97125.06;;;9.82;77.51
54918;BME280;40818;50.562;7.454;2024-03-23T11:58:50;97126.56;;;9.36;76.25
54918;BME280;40818;50.562;7.454;2024-03-23T12:09:05;97107.28;;;8.51;83.87
54918;BME280;40818;50.562;7.454;2024-03-23T12:19:06;97090.00;;;9.65;80.18
54918;BME280;40818;50.562;7.454;2024-03-23T12:29:09;97073.22;;;10.64;76.66
54918;BME280;40818;50.562;7.454;2024-03-23T12:39:10;97053.72;;;12.03;71.33
54918;BME280;40818;50.562;7.454;2024-03-23T12:49:13;97059.03;;;12.74;63.62
54918;BME280;40818;50.562;7.454;2024-03-23T12:59:14;97051.72;;;12.89;56.67
54918;BME280;40818;50.562;7.454;2024-03-23T13:09:18;97054.34;;;12.16;55.53
54918;BME280;40818;50.562;7.454;2024-03-23T13:19:19;97050.47;;;11.46;57.23
54918;BME280;40818;50.562;7.454;2024-03-23T13:29:24;97048.78;;;10.78;55.45
54918;BME280;40818;50.562;7.454;2024-03-23T13:39:25;97033.38;;;10.30;57.81
54918;BME280;40818;50.562;7.454;2024-03-23T13:49:29;97037.25;;;10.59;57.74
54918;BME280;40818;50.562;7.454;2024-03-23T13:59:30;97052.81;;;10.59;59.75
54918;BME280;40818;50.562;7.454;2024-03-23T14:09:34;97042.44;;;10.59;64.94
54918;BME280;40818;50.562;7.454;2024-03-23T14:19:34;97027.66;;;10.71;65.29
54918;BME280;40818;50.562;7.454;2024-03-23T14:29:38;97031.09;;;10.95;63.78
54918;BME280;40818;50.562;7.454;2024-03-23T14:39:39;97017.63;;;9.86;65.14
54918;BME280;40818;50.562;7.454;2024-03-23T14:49:42;97022.63;;;9.16;67.37
54918;BME280;40818;50.562;7.454;2024-03-23T14:59:43;97006.19;;;8.29;71.47
54918;BME280;40818;50.562;7.454;2024-03-23T15:09:46;96996.69;;;8.42;76.44
54918;BME280;40818;50.562;7.454;2024-03-23T15:19:47;97012.69;;;8.34;77.16
54918;BME280;40818;50.562;7.454;2024-03-23T15:29:51;96999.03;;;8.19;74.93
54918;BME280;40818;50.562;7.454;2024-03-23T15:39:51;97008.03;;;7.88;76.93
54918;BME280;40818;50.562;7.454;2024-03-23T15:49:55;97012.88;;;7.40;77.60
54918;BME280;40818;50.562;7.454;2024-03-23T15:59:55;97019.22;;;7.21;76.64
54918;BME280;40818;50.562;7.454;2024-03-23T16:09:59;97015.88;;;6.92;76.30
54918;BME280;40818;50.562;7.454;2024-03-23T16:20:02;97008.53;;;6.42;75.21
54918;BME280;40818;50.562;7.454;2024-03-23T16:30:07;97002.16;;;6.05;75.68
54918;BME280;40818;50.562;7.454;2024-03-23T16:40:09;96997.97;;;5.88;75.97
54918;BME280;40818;50.562;7.454;2024-03-23T16:50:12;97015.56;;;5.95;77.24
54918;BME280;40818;50.562;7.454;2024-03-23T17:00:14;97012.28;;;5.77;76.85
54918;BME280;40818;50.562;7.454;2024-03-23T17:10:17;97017.75;;;5.26;84.38
54918;BME280;40818;50.562;7.454;2024-03-23T17:20:18;97018.72;;;5.08;86.33
54918;BME280;40818;50.562;7.454;2024-03-23T17:30:21;97021.47;;;4.73;89.98
54918;BME280;40818;50.562;7.454;2024-03-23T17:40:22;96999.47;;;4.67;89.94
54918;BME280;40818;50.562;7.454;2024-03-23T17:50:25;96986.84;;;4.31;94.94
54918;BME280;40818;50.562;7.454;2024-03-23T18:00:26;96994.34;;;4.18;94.88
54918;BME280;40818;50.562;7.454;2024-03-23T18:10:30;97010.75;;;3.98;94.22
54918;BME280;40818;50.562;7.454;2024-03-23T18:20:31;97015.25;;;3.94;92.25
54918;BME280;40818;50.562;7.454;2024-03-23T18:30:34;97015.41;;;3.73;93.12
54918;BME280;40818;50.562;7.454;2024-03-23T18:40:35;97012.00;;;3.55;93.31
54918;BME280;40818;50.562;7.454;2024-03-23T18:50:39;97012.03;;;3.36;93.15
54918;BME280;40818;50.562;7.454;2024-03-23T19:00:39;96997.94;;;3.08;94.00
54918;BME280;40818;50.562;7.454;2024-03-23T19:10:43;96986.97;;;2.87;95.52
54918;BME280;40818;50.562;7.454;2024-03-23T19:20:54;96993.22;;;2.82;97.51
54918;BME280;40818;50.562;7.454;2024-03-23T19:31:01;97010.94;;;2.86;98.67
54918;BME280;40818;50.562;7.454;2024-03-23T19:41:03;97000.56;;;2.89;100.00
54918;BME280;40818;50.562;7.454;2024-03-23T19:51:06;96991.94;;;2.90;100.00
54918;BME280;40818;50.562;7.454;2024-03-23T20:01:14;96983.84;;;2.81;100.00
54918;BME280;40818;50.562;7.454;2024-03-23T20:11:17;96990.66;;;2.82;100.00
54918;BME280;40818;50.562;7.454;2024-03-23T20:21:18;96971.03;;;2.81;100.00
54918;BME280;40818;50.562;7.454;2024-03-23T20:31:22;96960.59;;;3.03;100.00
54918;BME280;40818;50.562;7.454;2024-03-23T20:41:22;96965.09;;;3.34;100.00
54918;BME280;40818;50.562;7.454;2024-03-23T20:51:27;96965.00;;;3.18;100.00
54918;BME280;40818;50.562;7.454;2024-03-23T21:01:28;96956.75;;;3.12;100.00
54918;BME280;40818;50.562;7.454;2024-03-23T21:11:32;96941.44;;;2.93;100.00
54918;BME280;40818;50.562;7.454;2024-03-23T21:21:33;96924.16;;;2.96;100.00
54918;BME280;40818;50.562;7.454;2024-03-23T21:31:36;96922.38;;;2.98;100.00
54918;BME280;40818;50.562;7.454;2024-03-23T21:41:37;96928.06;;;2.86;100.00
54918;BME280;40818;50.562;7.454;2024-03-23T21:51:40;96922.66;;;2.36;100.00
54918;BME280;40818;50.562;7.454;2024-03-23T22:01:41;96917.66;;;1.95;100.00
54918;BME280;40818;50.562;7.454;2024-03-23T22:11:44;96911.78;;;1.73;100.00
54918;BME280;40818;50.562;7.454;2024-03-23T22:21:45;96904.00;;;1.76;100.00
54918;BME280;40818;50.562;7.454;2024-03-23T22:31:49;96904.22;;;1.90;100.00
54918;BME280;40818;50.562;7.454;2024-03-23T22:41:49;96893.09;;;1.91;100.00
54918;BME280;40818;50.562;7.454;2024-03-23T22:51:53;96883.94;;;2.04;100.00
54918;BME280;40818;50.562;7.454;2024-03-23T23:01:54;96870.81;;;1.93;100.00
54918;BME280;40818;50.562;7.454;2024-03-23T23:11:57;96868.78;;;1.81;100.00
54918;BME280;40818;50.562;7.454;2024-03-23T23:21:58;96857.78;;;1.79;100.00
54918;BME280;40818;50.562;7.454;2024-03-23T23:32:02;96833.94;;;1.78;100.00
54918;BME280;40818;50.562;7.454;2024-03-23T23:42:03;96836.28;;;1.83;100.00
54918;BME280;40818;50.562;7.454;2024-03-23T23:52:07;96819.38;;;1.60;100.00
